Time;durP1;ratioP1;P1;durP2;ratioP2;P2;SDS_P1;SDS_P2;PMS_P1;PMS_P2;Temp;Humidity;BMP_temperature;BMP_pressure;BME280_temperature;BME280_humidity;BME280_pressure;Samples;Min_cycle;Max_cycle;Signal;HPM_P1;HPM_P2
2021/06/27 00:01:46;;;;;;;9.10;5.30;;;614.60;1561.60;;;;;;4975405;28;20023;-64
2021/06/27 00:04:14;;;;;;;6.88;5.63;;;614.60;1561.60;;;;;;4975623;28;20119;-60
2021/06/27 00:06:40;;;;;;;6.50;5.68;;;614.60;1561.60;;;;;;4975505;28;20038;-61
2021/06/27 00:09:07;;;;;;;8.90;5.30;;;614.60;1561.60;;;;;;4975313;28;20125;-65
2021/06/27 00:11:33;;;;;;;9.23;5.38;;;614.60;1561.60;;;;;;4975482;28;20057;-64
2021/06/27 00:13:59;;;;;;;6.20;5.15;;;614.60;1561.60;;;;;;4975417;28;20027;-60
2021/06/27 00:16:28;;;;;;;5.20;4.65;;;614.60;1561.60;;;;;;4974672;28;20069;-60
2021/06/27 00:18:54;;;;;;;6.97;5.13;;;614.60;1561.60;;;;;;4975537;28;20019;-65
2021/06/27 00:21:20;;;;;;;6.05;5.03;;;614.60;1561.60;;;;;;4975348;28;20520;-60
2021/06/27 00:23:49;;;;;;;6.15;5.00;;;614.50;1561.60;;;;;;4975476;28;20030;-60
2021/06/27 00:26:20;;;;;;;10.18;5.00;;;614.50;1561.60;;;;;;4974941;28;20023;-60
2021/06/27 00:28:46;;;;;;;5.60;4.93;;;614.50;1561.60;;;;;;4975137;28;20066;-60
2021/06/27 00:31:13;;;;;;;6.13;5.50;;;614.40;1561.60;;;;;;4975440;28;20081;-64
2021/06/27 00:33:39;;;;;;;6.15;5.38;;;614.40;1536.00;;;;;;4975496;28;20405;-64
2021/06/27 00:36:05;;;;;;;5.82;5.20;;;614.40;1536.00;;;;;;4974916;28;20019;-60
2021/06/27 00:38:32;;;;;;;5.20;4.70;;;614.40;1536.00;;;;;;4975152;28;20023;-60
2021/06/27 00:40:57;;;;;;;6.70;5.20;;;614.40;1510.40;;;;;;4975115;28;20377;-60
2021/06/27 00:43:23;;;;;;;6.78;5.20;;;614.40;1510.40;;;;;;4974690;28;20070;-60
2021/06/27 00:45:49;;;;;;;6.38;4.85;;;614.40;1510.40;;;;;;4975257;28;20107;-65
2021/06/27 00:48:16;;;;;;;5.85;4.60;;;614.40;1510.40;;;;;;4974715;28;20031;-64
2021/06/27 00:50:48;;;;;;;5.25;4.50;;;614.40;1510.40;;;;;;4975555;28;20037;-60
2021/06/27 00:53:15;;;;;;;7.68;5.53;;;614.40;1510.40;;;;;;4974885;28;20019;-60
2021/06/27 00:55:41;;;;;;;6.13;5.07;;;614.40;1510.40;;;;;;4975194;28;20026;-64
2021/06/27 00:58:08;;;;;;;7.15;4.55;;;614.40;1484.80;;;;;;4974792;28;20015;-64
2021/06/27 01:00:41;;;;;;;5.82;4.85;;;614.40;1484.80;;;;;;4974411;28;20027;-64
2021/06/27 01:03:08;;;;;;;5.27;4.40;;;614.40;1484.80;;;;;;4975232;28;20038;-64
2021/06/27 01:05:39;;;;;;;8.05;4.90;;;614.40;1484.80;;;;;;4975439;28;20369;-64
2021/06/27 01:08:06;;;;;;;7.00;5.20;;;614.40;1484.80;;;;;;4974856;28;20105;-60
2021/06/27 01:10:32;;;;;;;7.70;5.75;;;614.40;1510.40;;;;;;4974311;28;20484;-60
2021/06/27 01:12:58;;;;;;;6.88;5.15;;;614.40;1510.40;;;;;;4974544;28;20073;-64
2021/06/27 01:15:24;;;;;;;9.93;5.93;;;589.70;1536.00;;;;;;4974526;28;20361;-60
2021/06/27 01:17:53;;;;;;;7.90;6.10;;;589.70;1536.00;;;;;;4974684;28;20031;-60
2021/06/27 01:20:25;;;;;;;7.53;5.55;;;589.70;1536.00;;;;;;4974216;28;20154;-64
2021/06/27 01:22:52;;;;;;;7.93;5.30;;;589.70;1536.00;;;;;;4974754;28;20113;-64
2021/06/27 01:25:24;;;;;;;5.72;4.63;;;589.70;1536.00;;;;;;4974635;28;20023;-64
2021/06/27 01:27:50;;;;;;;8.65;4.97;;;589.60;1510.40;;;;;;4975067;28;20033;-65
2021/06/27 01:30:17;;;;;;;7.68;4.95;;;589.60;1510.40;;;;;;4978263;28;20030;-60
2021/06/27 01:32:48;;;;;;;6.57;5.03;;;589.60;1510.40;;;;;;4978499;28;20033;-65
2021/06/27 01:35:19;;;;;;;6.70;4.97;;;589.60;1510.40;;;;;;4978116;28;20030;-60
2021/06/27 01:37:45;;;;;;;9.77;5.45;;;589.60;1510.40;;;;;;4978143;28;20050;-60
2021/06/27 01:40:14;;;;;;;5.65;5.15;;;589.60;1536.00;;;;;;4978089;28;20038;-64
2021/06/27 01:42:40;;;;;;;7.68;5.30;;;589.50;1536.00;;;;;;4977832;28;20043;-60
2021/06/27 01:45:27;;;;;;;7.00;5.50;;;589.50;1536.00;;;;;;4978107;28;20074;-60
2021/06/27 01:48:04;;;;;;;6.13;5.53;;;589.40;1536.00;;;;;;4976725;28;20045;-60
2021/06/27 01:50:30;;;;;;;7.05;6.35;;;589.40;1561.60;;;;;;4977930;28;20058;-61
2021/06/27 01:52:58;;;;;;;7.40;5.72;;;589.40;1561.60;;;;;;4977759;28;20534;-60
2021/06/27 01:55:24;;;;;;;8.60;5.63;;;589.30;1561.60;;;;;;4977999;28;20066;-60
2021/06/27 01:57:51;;;;;;;9.35;6.68;;;589.30;1561.60;;;;;;4977575;28;20546;-60
2021/06/27 02:00:18;;;;;;;8.10;5.68;;;589.30;1561.60;;;;;;4977734;28;20046;-61
2021/06/27 02:02:44;;;;;;;8.13;5.85;;;589.20;1561.60;;;;;;4977824;28;20066;-64
2021/06/27 02:05:10;;;;;;;7.82;5.47;;;589.30;1561.60;;;;;;4977788;28;20035;-76
2021/06/27 02:07:38;;;;;;;5.85;5.00;;;589.30;1561.60;;;;;;4977659;28;20057;-61
2021/06/27 02:10:13;;;;;;;6.25;5.43;;;589.20;1536.00;;;;;;4977709;28;20035;-61
2021/06/27 02:12:39;;;;;;;6.32;5.72;;;589.20;1536.00;;;;;;4977665;28;20026;-68
2021/06/27 02:15:07;;;;;;;6.00;5.50;;;589.20;1536.00;;;;;;4960460;28;20412;-61
2021/06/27 02:17:33;;;;;;;9.10;5.20;;;589.20;1536.00;;;;;;4977512;28;20038;-61
2021/06/27 02:19:59;;;;;;;8.25;5.38;;;589.20;1561.60;;;;;;4977563;28;20030;-67
2021/06/27 02:22:25;;;;;;;7.25;5.65;;;589.20;1561.60;;;;;;4977314;28;20023;-60
2021/06/27 02:24:51;;;;;;;6.00;5.40;;;589.10;1561.60;;;;;;4977400;28;20058;-74
2021/06/27 02:27:17;;;;;;;6.68;5.13;;;589.10;1561.60;;;;;;4977199;28;20388;-61
2021/06/27 02:29:43;;;;;;;7.00;5.20;;;589.10;1561.60;;;;;;4976818;28;20493;-60
2021/06/27 02:32:09;;;;;;;6.65;5.63;;;589.10;1587.20;;;;;;4977264;28;20081;-61
2021/06/27 02:34:35;;;;;;;7.55;5.65;;;589.00;1587.20;;;;;;4977111;28;20052;-64
2021/06/27 02:37:01;;;;;;;8.00;5.88;;;589.00;1587.20;;;;;;4977183;28;20111;-61
2021/06/27 02:39:27;;;;;;;7.88;6.50;;;588.90;1587.20;;;;;;4976471;28;20454;-74
2021/06/27 02:41:54;;;;;;;7.70;5.35;;;588.90;1587.20;;;;;;4977115;28;20082;-60
2021/06/27 02:44:19;;;;;;;8.00;6.32;;;588.90;1587.20;;;;;;4976740;28;20113;-74
2021/06/27 02:46:45;;;;;;;7.80;6.05;;;588.90;1587.20;;;;;;4977021;28;20054;-62
2021/06/27 02:49:11;;;;;;;10.35;5.32;;;588.90;1612.80;;;;;;4976750;28;20039;-61
2021/06/27 02:51:37;;;;;;;6.32;5.72;;;588.80;1587.20;;;;;;4976663;28;20033;-61
2021/06/27 02:54:03;;;;;;;9.35;5.60;;;588.80;1587.20;;;;;;4976777;28;20039;-64
2021/06/27 02:56:29;;;;;;;8.30;6.35;;;588.80;1587.20;;;;;;4976821;28;20102;-63
2021/06/27 02:58:54;;;;;;;7.55;5.57;;;588.90;1587.20;;;;;;4976588;28;20484;-65
2021/06/27 03:01:20;;;;;;;8.85;5.75;;;588.80;1612.80;;;;;;4976729;28;20373;-76
2021/06/27 03:03:50;;;;;;;8.43;6.03;;;588.80;1612.80;;;;;;4976486;28;20654;-61
2021/06/27 03:06:17;;;;;;;7.22;5.55;;;588.80;1612.80;;;;;;4976660;28;20046;-76
2021/06/27 03:08:43;;;;;;;6.13;5.53;;;588.80;1612.80;;;;;;4976370;28;20048;-76
2021/06/27 03:11:09;;;;;;;8.82;5.78;;;588.80;1612.80;;;;;;4976662;28;20027;-75
2021/06/27 03:13:37;;;;;;;8.60;5.80;;;588.80;1612.80;;;;;;4976286;28;20026;-60
2021/06/27 03:16:07;;;;;;;8.73;5.75;;;564.10;1612.80;;;;;;4976344;28;20095;-60
2021/06/27 03:18:34;;;;;;;6.50;5.70;;;564.10;1612.80;;;;;;4976349;28;20031;-61
2021/06/27 03:20:59;;;;;;;6.60;5.85;;;564.10;1638.40;;;;;;4976148;28;20023;-61
2021/06/27 03:23:26;;;;;;;6.80;6.10;;;564.10;1612.80;;;;;;4976243;28;20026;-60
2021/06/27 03:25:53;;;;;;;8.05;6.43;;;564.10;1612.80;;;;;;4976288;28;20385;-60
2021/06/27 03:28:19;;;;;;;6.63;5.88;;;564.00;1638.40;;;;;;4976004;28;20031;-74
2021/06/27 03:30:45;;;;;;;6.82;6.10;;;564.00;1638.40;;;;;;4975869;28;20105;-61
2021/06/27 03:33:11;;;;;;;7.20;6.03;;;564.00;1638.40;;;;;;4976533;28;20054;-76
2021/06/27 03:35:37;;;;;;;8.27;6.57;;;564.10;1638.40;;;;;;4975874;28;20035;-75
2021/06/27 03:38:18;;;;;;;8.38;6.15;;;564.10;1638.40;;;;;;4976181;28;20027;-62
2021/06/27 03:40:44;;;;;;;8.85;6.43;;;564.10;1638.40;;;;;;4975959;28;20027;-60
2021/06/27 03:43:10;;;;;;;8.52;6.90;;;564.10;1638.40;;;;;;4975553;28;20050;-61
2021/06/27 03:45:37;;;;;;;9.02;7.43;;;564.10;1638.40;;;;;;4975716;28;20038;-61
2021/06/27 03:48:04;;;;;;;8.18;6.85;;;564.00;1664.00;;;;;;4975949;28;20019;-61
2021/06/27 03:50:30;;;;;;;11.98;7.78;;;564.00;1664.00;;;;;;4975843;28;20186;-70
2021/06/27 03:52:56;;;;;;;11.27;8.73;;;564.00;1664.00;;;;;;4974923;28;20155;-62
2021/06/27 03:55:22;;;;;;;12.57;7.68;;;563.90;1664.00;;;;;;4975855;28;20026;-76
2021/06/27 03:57:48;;;;;;;16.73;7.10;;;564.00;1664.00;;;;;;4975548;28;20026;-61
2021/06/27 04:00:15;;;;;;;11.52;7.75;;;564.00;1664.00;;;;;;4975604;28;20019;-62
2021/06/27 04:02:41;;;;;;;11.02;8.20;;;564.00;1664.00;;;;;;4975475;28;20022;-76
2021/06/27 04:05:09;;;;;;;10.60;8.35;;;564.00;1664.00;;;;;;4975670;28;20381;-61
2021/06/27 04:07:36;;;;;;;14.32;8.90;;;564.00;1689.60;;;;;;4975572;28;20027;-72
2021/06/27 04:10:02;;;;;;;10.25;8.70;;;564.00;1689.60;;;;;;4975185;28;20035;-61
2021/06/27 04:12:28;;;;;;;16.00;8.25;;;564.00;1689.60;;;;;;4975398;28;20027;-74
2021/06/27 04:14:53;;;;;;;10.13;8.18;;;564.00;1689.60;;;;;;4975161;28;20037;-61
2021/06/27 04:17:20;;;;;;;11.75;8.73;;;564.00;1689.60;;;;;;4975255;28;20030;-60
2021/06/27 04:19:47;;;;;;;14.07;8.15;;;564.00;1689.60;;;;;;4975412;28;20031;-60
2021/06/27 04:22:13;;;;;;;9.90;8.05;;;564.00;1689.60;;;;;;4975237;28;20027;-61
2021/06/27 04:24:39;;;;;;;10.13;8.55;;;564.10;1689.60;;;;;;4974953;28;20037;-61
2021/06/27 04:27:05;;;;;;;12.10;9.43;;;564.10;1689.60;;;;;;4975258;28;20031;-62
2021/06/27 04:29:31;;;;;;;11.30;8.75;;;564.10;1689.60;;;;;;4974785;28;20090;-61
2021/06/27 04:31:57;;;;;;;10.07;8.95;;;564.10;1715.20;;;;;;4975862;28;20022;-74
2021/06/27 04:34:23;;;;;;;10.73;8.73;;;588.80;1689.60;;;;;;4975133;28;20384;-74
2021/06/27 04:36:49;;;;;;;9.93;8.55;;;588.80;1689.60;;;;;;4975017;28;20027;-76
2021/06/27 04:39:15;;;;;;;19.52;9.65;;;588.80;1689.60;;;;;;4975031;28;20038;-76
2021/06/27 04:41:43;;;;;;;17.13;9.23;;;588.90;1689.60;;;;;;4975019;28;20372;-67
2021/06/27 04:44:10;;;;;;;11.00;8.63;;;589.00;1664.00;;;;;;4974882;28;20039;-60
2021/06/27 04:46:40;;;;;;;12.48;8.57;;;589.10;1664.00;;;;;;4975139;28;20027;-61
2021/06/27 04:49:06;;;;;;;9.90;8.65;;;589.10;1664.00;;;;;;4975011;28;20037;-60
2021/06/27 04:51:32;;;;;;;9.63;8.60;;;589.20;1638.40;;;;;;4975048;28;20023;-76
2021/06/27 04:53:58;;;;;;;13.13;8.70;;;589.30;1638.40;;;;;;4974940;28;20027;-63
2021/06/27 04:56:24;;;;;;;13.18;8.95;;;589.40;1638.40;;;;;;4975067;28;20110;-61
2021/06/27 04:58:49;;;;;;;12.77;8.45;;;589.50;1638.40;;;;;;4974676;28;20031;-76
2021/06/27 05:01:15;;;;;;;9.35;8.27;;;589.70;1638.40;;;;;;4974521;28;20424;-76
2021/06/27 05:03:41;;;;;;;11.18;7.57;;;614.50;1612.80;;;;;;4976526;28;20043;-76
2021/06/27 05:06:07;;;;;;;13.70;7.50;;;614.70;1587.20;;;;;;4979148;28;20031;-76
2021/06/27 05:08:33;;;;;;;12.18;7.82;;;614.90;1561.60;;;;;;4978261;28;20035;-61
2021/06/27 05:10:59;;;;;;;10.73;8.13;;;615.10;1536.00;;;;;;4978751;28;20106;-76
2021/06/27 05:13:25;;;;;;;9.18;7.07;;;615.30;1510.40;;;;;;4978534;28;20508;-75
2021/06/27 05:15:51;;;;;;;9.13;7.60;;;640.00;1484.80;;;;;;4978656;28;20027;-76
2021/06/27 05:18:17;;;;;;;12.35;7.88;;;640.10;1484.80;;;;;;4978370;28;20436;-61
2021/06/27 05:20:43;;;;;;;13.90;7.28;;;640.30;1459.20;;;;;;4978458;28;20091;-61
2021/06/27 05:23:09;;;;;;;10.85;7.97;;;640.50;1459.20;;;;;;4978361;28;20027;-75
2021/06/27 05:25:34;;;;;;;10.32;7.63;;;640.60;1459.20;;;;;;4978514;28;20054;-61
2021/06/27 05:28:00;;;;;;;8.50;7.25;;;640.70;1459.20;;;;;;4978083;28;20523;-75
2021/06/27 05:30:27;;;;;;;9.38;7.45;;;665.60;1459.20;;;;;;4978407;28;20039;-73
2021/06/27 05:32:53;;;;;;;12.98;8.10;;;665.70;1459.20;;;;;;4978422;28;20041;-61
2021/06/27 05:35:19;;;;;;;9.88;7.00;;;665.70;1433.60;;;;;;4978162;28;20031;-61
2021/06/27 05:37:45;;;;;;;10.45;7.72;;;665.70;1433.60;;;;;;4978154;28;20481;-61
2021/06/27 05:40:14;;;;;;;10.85;8.85;;;665.60;1459.20;;;;;;4978224;28;20105;-72
2021/06/27 05:42:39;;;;;;;9.45;7.78;;;640.80;1433.60;;;;;;4978045;28;20046;-72
2021/06/27 05:45:06;;;;;;;10.65;8.00;;;640.70;1433.60;;;;;;4978029;28;20425;-60
2021/06/27 05:47:32;;;;;;;10.30;8.88;;;640.70;1459.20;;;;;;4977195;28;20381;-76
2021/06/27 05:49:58;;;;;;;11.27;8.98;;;640.60;1484.80;;;;;;4977937;28;20045;-61
2021/06/27 05:52:24;;;;;;;11.35;8.13;;;640.60;1484.80;;;;;;4978096;28;20031;-76
2021/06/27 05:54:50;;;;;;;13.18;8.35;;;640.80;1484.80;;;;;;4978018;28;20057;-63
2021/06/27 05:57:16;;;;;;;10.50;8.52;;;665.60;1484.80;;;;;;4977924;28;20527;-61
2021/06/27 05:59:42;;;;;;;10.85;9.02;;;665.90;1459.20;;;;;;4977542;28;20050;-76
2021/06/27 06:02:08;;;;;;;9.70;8.57;;;666.20;1433.60;;;;;;4978026;28;20457;-75
2021/06/27 06:04:34;;;;;;;9.73;8.68;;;666.20;1433.60;;;;;;4977584;28;20027;-60
2021/06/27 06:07:00;;;;;;;11.02;8.75;;;666.10;1459.20;;;;;;4977551;28;20030;-61
2021/06/27 06:09:25;;;;;;;12.32;7.95;;;666.30;1459.20;;;;;;4977541;28;20049;-62
2021/06/27 06:11:51;;;;;;;11.45;8.50;;;666.40;1433.60;;;;;;4977489;28;20085;-74
2021/06/27 06:14:17;;;;;;;12.88;9.20;;;666.40;1433.60;;;;;;4976719;28;20035;-70
2021/06/27 06:16:45;;;;;;;10.93;8.32;;;666.40;1433.60;;;;;;4977011;28;20479;-61
2021/06/27 06:19:11;;;;;;;8.82;7.80;;;691.20;1408.00;;;;;;4977325;28;20397;-75
2021/06/27 06:21:37;;;;;;;9.45;7.78;;;691.30;1382.40;;;;;;4977570;28;20031;-64
2021/06/27 06:24:03;;;;;;;12.00;8.45;;;691.50;1356.80;;;;;;4977103;28;20384;-75
2021/06/27 06:26:29;;;;;;;15.27;8.75;;;691.80;1356.80;;;;;;4977943;28;20094;-76
2021/06/27 06:28:55;;;;;;;12.73;8.43;;;692.00;1356.80;;;;;;4977094;28;20502;-73
2021/06/27 06:31:21;;;;;;;18.73;9.05;;;716.90;1356.80;;;;;;4977171;28;20045;-73
2021/06/27 06:33:46;;;;;;;12.10;8.50;;;717.00;1331.20;;;;;;4977336;28;20022;-62
2021/06/27 06:36:12;;;;;;;13.70;8.13;;;717.30;1305.60;;;;;;4976785;28;20055;-74
2021/06/27 06:38:38;;;;;;;14.63;7.97;;;717.60;1305.60;;;;;;4976928;28;20030;-61
2021/06/27 06:41:03;;;;;;;10.90;8.40;;;742.40;1305.60;;;;;;4976650;28;20034;-68
2021/06/27 06:43:29;;;;;;;9.82;8.38;;;742.60;1305.60;;;;;;4976688;28;20066;-71
2021/06/27 06:45:55;;;;;;;9.52;8.48;;;742.70;1305.60;;;;;;4976493;28;20031;-61
2021/06/27 06:48:21;;;;;;;10.43;7.80;;;743.00;1280.00;;;;;;4976687;28;20023;-64
2021/06/27 06:50:47;;;;;;;9.43;7.65;;;743.10;1280.00;;;;;;4988111;28;20042;-61
2021/06/27 06:53:13;;;;;;;10.57;8.48;;;743.30;1254.40;;;;;;4992897;28;20442;-64
2021/06/27 06:55:38;;;;;;;15.20;8.15;;;768.20;1228.80;;;;;;4996064;28;20484;-61
2021/06/27 06:58:05;;;;;;;11.85;7.93;;;768.20;1203.20;;;;;;4982523;28;20508;-61
2021/06/27 07:00:31;;;;;;;8.68;7.47;;;768.50;1203.20;;;;;;4978810;28;20035;-67
2021/06/27 07:02:57;;;;;;;13.65;7.68;;;768.60;1177.60;;;;;;4976199;28;20030;-68
2021/06/27 07:05:22;;;;;;;9.43;7.75;;;768.80;1177.60;;;;;;4976725;28;20033;-74
2021/06/27 07:07:48;;;;;;;8.27;7.43;;;793.60;1177.60;;;;;;4978931;28;20043;-63
2021/06/27 07:10:14;;;;;;;9.68;7.80;;;793.80;1152.00;;;;;;4986804;28;20093;-72
2021/06/27 07:12:41;;;;;;;14.48;8.15;;;793.80;1126.40;;;;;;4985018;28;20050;-62
2021/06/27 07:15:08;;;;;;;8.52;7.60;;;794.00;1152.00;;;;;;4984839;28;20067;-71
2021/06/27 07:17:33;;;;;;;8.98;8.00;;;794.20;1126.40;;;;;;4986540;28;20030;-72
2021/06/27 07:19:59;;;;;;;15.50;7.20;;;794.30;1152.00;;;;;;4985073;28;20483;-66
2021/06/27 07:22:25;;;;;;;11.00;8.23;;;794.50;1152.00;;;;;;4985285;28;20027;-68
2021/06/27 07:24:51;;;;;;;8.98;8.07;;;819.40;1126.40;;;;;;4986238;28;20380;-63
2021/06/27 07:27:16;;;;;;;11.18;9.07;;;819.50;1100.80;;;;;;4984521;28;20019;-74
2021/06/27 07:29:42;;;;;;;23.65;9.82;;;819.70;1100.80;;;;;;4985371;28;20030;-61
2021/06/27 07:32:08;;;;;;;17.27;7.78;;;820.00;1075.20;;;;;;4983327;28;20023;-72
2021/06/27 07:34:35;;;;;;;8.95;7.35;;;820.10;1075.20;;;;;;4986763;28;20047;-70
2021/06/27 07:37:03;;;;;;;10.20;7.38;;;844.80;1100.80;;;;;;4995484;28;20023;-72
2021/06/27 07:39:29;;;;;;;8.15;7.25;;;844.90;1100.80;;;;;;4995679;28;20026;-75
2021/06/27 07:41:54;;;;;;;12.50;7.47;;;845.00;1100.80;;;;;;4995193;28;20156;-75
2021/06/27 07:44:20;;;;;;;15.45;7.25;;;845.10;1075.20;;;;;;4994863;28;20034;-61
2021/06/27 07:46:46;;;;;;;15.57;7.45;;;845.30;1049.60;;;;;;4994037;28;20403;-74
2021/06/27 07:49:12;;;;;;;45.80;10.40;;;845.30;1024.00;;;;;;4994863;28;20116;-63
2021/06/27 07:51:37;;;;;;;155.75;20.98;;;845.50;1049.60;;;;;;4995040;28;20118;-74
2021/06/27 07:54:03;;;;;;;22.15;8.82;;;845.50;1024.00;;;;;;4991510;28;20173;-62
2021/06/27 07:56:29;;;;;;;13.55;7.78;;;845.60;998.40;;;;;;4986070;28;20051;-73
2021/06/27 07:58:55;;;;;;;11.27;7.18;;;845.70;998.40;;;;;;4989263;28;20026;-61
2021/06/27 08:01:24;;;;;;;10.13;6.40;;;870.40;998.40;;;;;;4994556;28;20041;-75
2021/06/27 08:03:50;;;;;;;10.52;7.10;;;870.50;998.40;;;;;;4990841;28;20030;-62
2021/06/27 08:06:16;;;;;;;10.02;6.60;;;870.60;998.40;;;;;;4985623;28;20011;-61
2021/06/27 08:08:42;;;;;;;7.45;6.25;;;870.70;998.40;;;;;;4983644;28;20037;-61
2021/06/27 08:11:09;;;;;;;7.53;5.60;;;870.80;972.80;;;;;;4984892;28;20026;-62
2021/06/27 08:13:35;;;;;;;5.85;4.68;;;871.00;972.80;;;;;;4985038;28;20015;-68
2021/06/27 08:16:01;;;;;;;10.20;5.15;;;871.10;972.80;;;;;;4983683;28;20027;-62
2021/06/27 08:18:27;;;;;;;7.72;5.10;;;871.20;947.20;;;;;;4984980;28;20378;-71
2021/06/27 08:20:52;;;;;;;10.52;5.50;;;871.30;921.60;;;;;;4984599;28;20388;-75
2021/06/27 08:23:18;;;;;;;10.35;5.45;;;896.10;921.60;;;;;;4989389;28;20029;-70
2021/06/27 08:25:44;;;;;;;7.60;5.07;;;896.10;921.60;;;;;;4985563;28;20035;-68
2021/06/27 08:28:10;;;;;;;7.55;5.07;;;896.30;896.00;;;;;;4983425;28;20031;-61
2021/06/27 08:30:36;;;;;;;5.22;4.72;;;896.50;896.00;;;;;;4985469;28;20030;-64
2021/06/27 08:33:03;;;;;;;5.90;5.00;;;896.60;870.40;;;;;;4987520;28;20085;-63
2021/06/27 08:35:31;;;;;;;7.43;4.80;;;896.80;870.40;;;;;;4981107;28;20495;-70
2021/06/27 08:37:57;;;;;;;6.80;4.80;;;896.80;870.40;;;;;;4982893;28;20039;-75
2021/06/27 08:40:23;;;;;;;7.05;4.53;;;921.60;896.00;;;;;;4983895;28;20019;-73
2021/06/27 08:42:51;;;;;;;10.90;5.75;;;921.70;896.00;;;;;;4982294;28;20489;-62
2021/06/27 08:45:17;;;;;;;6.28;4.15;;;921.80;896.00;;;;;;4983119;28;20391;-71
2021/06/27 08:47:44;;;;;;;9.18;5.05;;;921.80;870.40;;;;;;4987174;28;20464;-75
2021/06/27 08:50:13;;;;;;;10.25;4.57;;;921.80;870.40;;;;;;4994480;28;20532;-62
2021/06/27 08:52:42;;;;;;;6.57;4.90;;;921.80;844.80;;;;;;4994570;28;20035;-62
2021/06/27 08:55:09;;;;;;;7.90;4.75;;;921.90;870.40;;;;;;4994312;28;20050;-75
2021/06/27 08:57:35;;;;;;;7.22;5.05;;;921.90;870.40;;;;;;4994343;28;20018;-76
2021/06/27 09:00:01;;;;;;;5.05;4.38;;;922.10;870.40;;;;;;4994320;28;20034;-76
2021/06/27 09:02:29;;;;;;;9.80;5.13;;;922.10;870.40;;;;;;4994329;28;20551;-62
2021/06/27 09:04:55;;;;;;;7.88;5.10;;;922.10;870.40;;;;;;4993998;28;20033;-75
2021/06/27 09:07:26;;;;;;;13.02;4.90;;;922.40;870.40;;;;;;4994363;28;20026;-62
2021/06/27 09:09:51;;;;;;;7.85;4.68;;;922.40;844.80;;;;;;4987734;28;20400;-75
2021/06/27 09:12:17;;;;;;;7.78;5.22;;;922.40;844.80;;;;;;4983006;28;20503;-72
2021/06/27 09:14:45;;;;;;;6.20;4.22;;;922.50;819.20;;;;;;4982902;28;20106;-63
2021/06/27 09:17:11;;;;;;;10.68;3.75;;;922.50;819.20;;;;;;4983139;28;20019;-64
2021/06/27 09:19:52;;;;;;;6.32;3.90;;;947.20;819.20;;;;;;4981577;28;20062;-62
2021/06/27 09:22:33;;;;;;;5.45;4.25;;;947.20;793.60;;;;;;4982986;28;20110;-61
2021/06/27 09:25:21;;;;;;;4.10;3.63;;;947.30;793.60;;;;;;4983091;28;20027;-69
2021/06/27 09:28:01;;;;;;;6.55;3.28;;;947.30;768.00;;;;;;4983870;28;20061;-61
2021/06/27 09:30:28;;;;;;;4.00;3.40;;;947.50;768.00;;;;;;4983899;28;20030;-75
2021/06/27 09:33:00;;;;;;;5.72;3.60;;;947.50;716.80;;;;;;4982583;28;20030;-64
2021/06/27 09:35:45;;;;;;;5.80;3.25;;;947.50;742.40;;;;;;4966282;28;20027;-73
2021/06/27 09:38:35;;;;;;;4.72;3.55;;;947.70;742.40;;;;;;4983786;28;20019;-72
2021/06/27 09:41:12;;;;;;;4.25;3.45;;;947.80;716.80;;;;;;4982799;28;20030;-75
2021/06/27 09:43:38;;;;;;;31.63;5.07;;;947.80;716.80;;;;;;4974161;28;20055;-75
2021/06/27 09:46:13;;;;;;;35.17;5.65;;;947.90;742.40;;;;;;4979185;28;20065;-75
2021/06/27 09:48:53;;;;;;;7.35;4.00;;;947.90;716.80;;;;;;4984765;28;20150;-71
2021/06/27 09:51:21;;;;;;;24.15;5.05;;;947.80;716.80;;;;;;4997448;28;20023;-71
2021/06/27 09:53:47;;;;;;;21.50;8.23;;;948.00;716.80;;;;;;4979498;28;20034;-70
2021/06/27 09:56:14;;;;;;;7.10;4.57;;;948.00;742.40;;;;;;4997353;28;20037;-62
2021/06/27 09:58:39;;;;;;;4.97;3.90;;;972.80;742.40;;;;;;4997207;28;20060;-62
2021/06/27 10:01:22;;;;;;;5.90;3.97;;;972.80;742.40;;;;;;4997236;28;20102;-76
2021/06/27 10:03:53;;;;;;;4.90;4.40;;;972.80;742.40;;;;;;4997280;28;20023;-77
2021/06/27 10:06:20;;;;;;;4.63;3.88;;;972.80;716.80;;;;;;4996975;28;20030;-76
2021/06/27 10:08:46;;;;;;;5.57;3.67;;;972.80;716.80;;;;;;4997076;28;20368;-70
2021/06/27 10:11:21;;;;;;;4.95;4.25;;;972.80;716.80;;;;;;4997097;28;20349;-76
2021/06/27 10:13:53;;;;;;;5.85;3.83;;;972.90;716.80;;;;;;4996907;28;20447;-63
2021/06/27 10:16:38;;;;;;;7.07;3.65;;;973.20;716.80;;;;;;4997108;28;20038;-63
2021/06/27 10:19:05;;;;;;;4.00;3.63;;;973.20;691.20;;;;;;4996928;28;20472;-73
2021/06/27 10:21:31;;;;;;;5.15;3.63;;;973.30;691.20;;;;;;4997031;28;20034;-63
2021/06/27 10:23:57;;;;;;;3.60;3.30;;;973.30;691.20;;;;;;4996869;28;20030;-63
2021/06/27 10:26:26;;;;;;;4.75;3.50;;;973.30;691.20;;;;;;4996849;28;20084;-63
2021/06/27 10:28:53;;;;;;;5.65;3.55;;;973.30;691.20;;;;;;4996649;28;20022;-67
2021/06/27 10:31:24;;;;;;;3.58;3.28;;;973.30;691.20;;;;;;4996853;28;20026;-75
2021/06/27 10:33:51;;;;;;;4.30;3.08;;;973.50;691.20;;;;;;4996578;28;20498;-63
2021/06/27 10:36:33;;;;;;;3.58;3.17;;;973.40;665.60;;;;;;4996795;28;20030;-76
2021/06/27 10:39:02;;;;;;;4.18;3.78;;;973.50;691.20;;;;;;4996575;28;20101;-76
2021/06/27 10:41:46;;;;;;;6.55;3.10;;;973.60;691.20;;;;;;4996573;28;20057;-64
2021/06/27 10:44:12;;;;;;;6.05;3.35;;;973.60;665.60;;;;;;4996323;28;20559;-76
2021/06/27 10:46:49;;;;;;;7.90;3.90;;;973.60;665.60;;;;;;4996341;28;20065;-71
2021/06/27 10:49:35;;;;;;;3.67;3.13;;;973.50;691.20;;;;;;4996423;28;20080;-76
2021/06/27 10:52:03;;;;;;;3.35;2.88;;;973.60;665.60;;;;;;4996160;28;20030;-76
2021/06/27 10:54:35;;;;;;;3.40;2.83;;;973.70;640.00;;;;;;4996436;28;20023;-63
2021/06/27 10:57:06;;;;;;;5.05;3.50;;;998.40;691.20;;;;;;4996347;28;20073;-72
2021/06/27 10:59:53;;;;;;;3.38;3.08;;;998.40;691.20;;;;;;4995956;28;20438;-76
2021/06/27 11:02:23;;;;;;;6.72;3.88;;;998.40;691.20;;;;;;4994222;28;20033;-76
2021/06/27 11:04:53;;;;;;;5.57;4.38;;;998.40;691.20;;;;;;4996215;28;20023;-62
2021/06/27 11:07:38;;;;;;;4.18;3.85;;;998.40;665.60;;;;;;4996148;28;20030;-73
2021/06/27 11:10:18;;;;;;;4.32;3.92;;;998.40;665.60;;;;;;4995851;28;20420;-63
2021/06/27 11:13:14;;;;;;;6.22;5.20;;;998.40;691.20;;;;;;4995963;28;20077;-77
2021/06/27 11:15:51;;;;;;;5.55;5.05;;;973.30;691.20;;;;;;4935850;29;20043;-76
2021/06/27 11:18:39;;;;;;;7.38;4.50;;;972.90;691.20;;;;;;4935950;29;20032;-71
2021/06/27 11:21:10;;;;;;;3.72;3.42;;;972.80;716.80;;;;;;4935942;29;20031;-62
2021/06/27 11:23:52;;;;;;;12.90;4.15;;;972.90;691.20;;;;;;4935942;29;20024;-68
2021/06/27 11:26:53;;;;;;;15.15;3.67;;;973.00;691.20;;;;;;4929011;29;20041;-76
2021/06/27 11:29:21;;;;;;;3.97;3.30;;;973.20;691.20;;;;;;4902370;29;20183;-67
2021/06/27 11:31:55;;;;;;;4.45;3.13;;;973.10;691.20;;;;;;4903688;29;20081;-73
2021/06/27 11:34:25;;;;;;;3.78;3.22;;;973.10;691.20;;;;;;4906164;29;20044;-70
2021/06/27 11:36:52;;;;;;;3.88;3.05;;;973.30;691.20;;;;;;4904143;29;20086;-66
2021/06/27 11:39:43;;;;;;;4.03;3.05;;;973.30;665.60;;;;;;4904079;29;20037;-61
2021/06/27 11:42:27;;;;;;;6.18;3.30;;;973.30;691.20;;;;;;4905954;29;20036;-75
2021/06/27 11:47:36;;;;;;;3.92;3.25;;;972.80;691.20;;;;;;4902613;29;20380;-75
2021/06/27 11:50:15;;;;;;;8.23;3.72;;;948.10;691.20;;;;;;4905427;29;20044;-63
2021/06/27 11:52:41;;;;;;;6.18;3.22;;;972.80;716.80;;;;;;4948349;28;20114;-62
2021/06/27 11:55:08;;;;;;;3.60;3.10;;;948.10;691.20;;;;;;4960675;28;20110;-75
2021/06/27 11:57:40;;;;;;;3.53;3.22;;;948.00;691.20;;;;;;4963049;28;20098;-71
2021/06/27 12:00:08;;;;;;;4.93;3.00;;;947.80;691.20;;;;;;4960509;28;20039;-73
2021/06/27 12:02:36;;;;;;;2.88;2.63;;;948.00;691.20;;;;;;4960904;28;20034;-63
2021/06/27 12:05:07;;;;;;;8.70;3.13;;;947.80;716.80;;;;;;4967928;28;20042;-71
2021/06/27 12:07:42;;;;;;;8.13;2.85;;;947.30;716.80;;;;;;4982918;28;20099;-74
2021/06/27 12:10:17;;;;;;;3.33;2.85;;;922.30;742.40;;;;;;4982391;28;20058;-75
2021/06/27 12:12:43;;;;;;;3.95;2.75;;;922.40;716.80;;;;;;4981348;28;20025;-74
2021/06/27 12:15:33;;;;;;;3.15;2.63;;;922.50;716.80;;;;;;4983793;28;20030;-74
2021/06/27 12:18:05;;;;;;;4.45;2.58;;;947.20;716.80;;;;;;4982251;28;20038;-69
2021/06/27 12:20:34;;;;;;;2.75;2.38;;;947.50;691.20;;;;;;4984106;28;20490;-73
2021/06/27 12:23:03;;;;;;;2.30;2.10;;;947.60;665.60;;;;;;4984417;28;20392;-62
2021/06/27 12:25:41;;;;;;;4.97;2.30;;;947.70;665.60;;;;;;4982475;28;20034;-73
2021/06/27 12:28:20;;;;;;;3.58;2.65;;;947.90;640.00;;;;;;4983446;28;20030;-74